Time;durP1;ratioP1;P1;durP2;ratioP2;P2;SDS_P1;SDS_P2;PMS_P1;PMS_P2;Temp;Humidity;BMP_temperature;BMP_pressure;BME280_temperature;BME280_humidity;BME280_pressure;Samples;Min_cycle;Max_cycle;Signal;HPM_P1;HPM_P2
2023/03/19 00:00:40;;;;;;;36.63;27.85;;;;;;;10.90;61.56;101483.44;4915944;28;20054;-82
2023/03/19 00:03:27;;;;;;;41.78;30.15;;;;;;;10.69;62.09;101454.88;4897870;28;20213;-80
2023/03/19 00:06:00;;;;;;;39.42;28.65;;;;;;;10.72;62.16;101480.34;4909306;28;20050;-78
2023/03/19 00:08:32;;;;;;;43.13;28.58;;;;;;;10.54;62.15;101447.25;4875050;28;20054;-80
2023/03/19 00:11:13;;;;;;;38.90;26.48;;;;;;;10.87;62.34;101508.44;4900502;28;20047;-80
2023/03/19 00:13:53;;;;;;;42.10;29.15;;;;;;;10.66;62.36;101479.03;4894373;28;20142;-78
2023/03/19 00:16:25;;;;;;;37.53;27.80;;;;;;;10.71;62.51;101484.00;4880671;28;20054;-79
2023/03/19 00:19:05;;;;;;;37.65;29.55;;;;;;;10.84;63.37;101490.06;4915378;28;20054;-77
2023/03/19 00:21:44;;;;;;;36.95;27.65;;;;;;;10.80;63.44;101491.28;4890643;28;20073;-79
2023/03/19 00:24:37;;;;;;;33.63;26.95;;;;;;;10.38;63.53;101426.31;4891157;28;20548;-80
2023/03/19 00:27:09;;;;;;;47.38;25.90;;;;;;;10.69;63.04;101477.94;4916678;28;20536;-78
2023/03/19 00:29:40;;;;;;;38.60;27.33;;;;;;;10.76;63.61;101500.41;4888407;28;20055;-79
2023/03/19 00:32:10;;;;;;;39.08;28.95;;;;;;;10.34;63.84;101446.94;4894392;28;20074;-79
2023/03/19 00:34:48;;;;;;;38.08;27.48;;;;;;;10.53;63.61;101482.69;4879610;28;20901;-80
2023/03/19 00:37:22;;;;;;;38.08;27.13;;;;;;;10.30;64.17;101456.06;4908830;28;20702;-79
2023/03/19 00:40:00;;;;;;;36.60;28.33;;;;;;;10.59;64.31;101503.50;4899819;28;20136;-80
2023/03/19 00:42:45;;;;;;;38.97;27.48;;;;;;;10.41;64.25;101485.34;4914664;28;20548;-78
2023/03/19 00:45:26;;;;;;;38.30;26.27;;;;;;;10.64;63.76;101504.00;4934483;28;20057;-80
2023/03/19 00:48:03;;;;;;;37.90;28.08;;;;;;;10.68;63.03;101492.19;4925641;28;20050;-78
2023/03/19 00:50:35;;;;;;;35.35;28.52;;;;;;;10.34;63.04;101420.38;4883700;28;20452;-81
2023/03/19 00:53:14;;;;;;;38.53;28.20;;;;;;;10.72;61.83;101493.63;4886609;28;20046;-82
2023/03/19 00:55:45;;;;;;;42.33;28.50;;;;;;;10.69;62.23;101499.19;4881449;28;20059;-81
2023/03/19 00:58:19;;;;;;;45.10;28.95;;;;;;;10.50;62.57;101472.31;4905630;28;20084;-81
2023/03/19 01:00:48;;;;;;;40.72;28.42;;;;;;;10.56;62.61;101490.44;4917567;28;20412;-79
2023/03/19 01:03:18;;;;;;;;;;;;;;;10.60;62.80;101499.88;4911289;28;20086;-79
2023/03/19 01:05:52;;;;;;;41.90;29.47;;;;;;;10.63;62.56;101497.84;4881158;28;20259;-81
2023/03/19 01:08:30;;;;;;;39.92;29.85;;;;;;;10.46;62.66;101482.31;4881599;29;20397;-80
2023/03/19 01:11:27;;;;;;;40.05;29.05;;;;;;;9.99;63.17;101407.88;4870099;28;20314;-80
2023/03/19 01:14:08;;;;;;;44.03;29.17;;;;;;;10.08;62.84;101402.88;4871492;29;20137;-82
2023/03/19 01:16:40;;;;;;;40.95;28.05;;;;;;;10.48;63.02;101456.50;4915032;28;20165;-80
2023/03/19 01:19:13;;;;;;;41.28;30.48;;;;;;;10.38;62.79;101429.78;4889561;29;20058;-80
2023/03/19 01:21:41;;;;;;;44.75;29.45;;;;;;;10.46;63.22;101440.69;4879435;29;20168;-80
2023/03/19 01:24:14;;;;;;;45.92;30.42;;;;;;;10.64;63.09;101464.16;4878840;28;20052;-80
2023/03/19 01:26:53;;;;;;;39.53;29.60;;;;;;;10.66;63.86;101462.25;4874067;29;20290;-80
2023/03/19 01:29:38;;;;;;;40.58;29.50;;;;;;;10.66;62.89;101451.63;4894865;29;20829;-81
2023/03/19 01:32:15;;;;;;;41.03;29.88;;;;;;;10.68;62.79;101465.63;4891006;29;20844;-80
2023/03/19 01:34:55;;;;;;;43.42;31.40;;;;;;;10.70;62.74;101479.63;4896162;29;20169;-80
2023/03/19 01:37:35;;;;;;;43.70;30.42;;;;;;;10.60;63.00;101460.03;4899956;29;20062;-80
2023/03/19 01:40:14;;;;;;;46.65;31.83;;;;;;;10.78;62.86;101471.94;4900548;29;20175;-82
2023/03/19 01:43:18;;;;;;;53.08;32.78;;;;;;;10.79;62.68;101483.41;4914835;29;20355;-79
2023/03/19 01:46:00;;;;;;;41.78;31.17;;;;;;;10.65;62.85;101460.53;4889633;29;20338;-81
2023/03/19 01:48:56;;;;;;;40.28;30.65;;;;;;;10.57;63.05;101468.25;4883978;29;20133;-80
2023/03/19 01:51:40;;;;;;;44.40;31.83;;;;;;;10.67;63.42;101485.19;4898714;28;20303;-80
2023/03/19 01:54:21;;;;;;;53.35;33.92;;;;;;;10.71;63.35;101488.47;4894558;29;20059;-81
2023/03/19 01:57:07;;;;;;;49.47;33.22;;;;;;;10.59;63.25;101471.63;4908674;28;20435;-79
2023/03/19 01:59:42;;;;;;;52.38;34.30;;;;;;;10.54;63.12;101471.13;4908935;28;20265;-78
2023/03/19 02:02:19;;;;;;;48.77;36.03;;;;;;;10.60;62.61;101481.28;4917707;28;20050;-78
2023/03/19 02:04:51;;;;;;;46.58;34.05;;;;;;;10.50;63.22;101477.63;4915027;28;20564;-79
2023/03/19 02:07:22;;;;;;;46.80;32.65;;;;;;;9.96;63.54;101400.16;4935945;28;20047;-79
2023/03/19 02:09:49;;;;;;;48.67;34.28;;;;;;;10.55;63.49;101502.03;4924275;28;20062;-80
2023/03/19 02:12:23;;;;;;;54.17;35.20;;;;;;;10.29;63.82;101469.44;4911226;29;20482;-80
2023/03/19 02:14:52;;;;;;;49.70;34.92;;;;;;;10.46;63.09;101504.41;4908852;28;20634;-82
2023/03/19 02:17:24;;;;;;;58.53;33.67;;;;;;;10.49;63.52;101498.03;4882888;29;20051;-81
2023/03/19 02:20:23;;;;;;;46.40;34.42;;;;;;;10.09;63.11;101425.78;4899911;28;20288;-81
2023/03/19 02:23:21;;;;;;;50.30;35.95;;;;;;;10.24;63.36;101467.09;4877253;29;20078;-80
2023/03/19 02:26:15;;;;;;;50.63;35.45;;;;;;;9.96;63.60;101439.94;4886569;29;20339;-78
2023/03/19 02:28:48;;;;;;;53.47;34.95;;;;;;;10.25;63.73;101511.25;4890328;29;20059;-81
2023/03/19 02:31:19;;;;;;;48.55;35.70;;;;;;;9.94;63.97;101468.38;4895118;28;20288;-81
2023/03/19 02:34:20;;;;;;;46.22;34.67;;;;;;;10.05;64.47;101488.84;4914446;28;20434;-79
2023/03/19 02:37:01;;;;;;;53.80;36.63;;;;;;;10.10;64.64;101492.00;4882261;29;20349;-78
2023/03/19 02:39:53;;;;;;;45.72;36.40;;;;;;;9.74;64.41;101414.16;4882698;29;20059;-78
2023/03/19 02:42:28;;;;;;;46.80;34.67;;;;;;;9.97;64.69;101449.59;4895007;29;20425;-82
2023/03/19 02:44:58;;;;;;;52.47;37.30;;;;;;;9.89;64.94;101449.31;4884067;29;20354;-80
2023/03/19 02:47:29;;;;;;;54.22;37.17;;;;;;;9.91;64.74;101462.47;4890848;29;20359;-79
2023/03/19 02:49:56;;;;;;;54.17;35.90;;;;;;;9.84;64.86;101459.41;4900267;28;20608;-79
2023/03/19 02:52:26;;;;;;;50.70;37.88;;;;;;;9.72;65.46;101455.00;4888321;29;20111;-81
2023/03/19 02:54:53;;;;;;;54.10;38.47;;;;;;;9.76;65.56;101464.44;4897612;28;20360;-78
2023/03/19 02:57:20;;;;;;;51.75;37.25;;;;;;;9.82;65.62;101478.06;4904200;28;20776;-79
2023/03/19 02:59:50;;;;;;;46.22;37.03;;;;;;;9.79;65.72;101467.69;4908259;29;20062;-80
2023/03/19 03:02:28;;;;;;;50.07;38.13;;;;;;;9.85;65.32;101477.00;4917538;28;20114;-80
2023/03/19 03:05:05;;;;;;;57.78;39.08;;;;;;;9.71;65.49;101442.66;4939055;28;20042;-81
2023/03/19 03:07:43;;;;;;;53.88;38.78;;;;;;;9.76;65.79;101453.81;4939569;28;20420;-79
2023/03/19 03:10:22;;;;;;;60.92;39.30;;;;;;;9.83;66.27;101481.59;4952007;28;20488;-79
2023/03/19 03:12:50;;;;;;;53.22;37.08;;;;;;;9.44;65.60;101409.22;4949757;28;20058;-78
2023/03/19 03:15:20;;;;;;;51.42;38.20;;;;;;;9.74;66.07;101469.00;4940087;28;20062;-79
2023/03/19 03:17:48;;;;;;;57.13;38.63;;;;;;;9.55;65.98;101437.63;4941889;28;20054;-78
2023/03/19 03:20:18;;;;;;;54.65;38.58;;;;;;;9.83;65.71;101484.25;4931624;28;20298;-78
2023/03/19 03:22:47;;;;;;;52.08;38.63;;;;;;;9.81;65.89;101487.00;4925618;28;20058;-77
2023/03/19 03:25:14;;;;;;;49.95;37.85;;;;;;;9.83;66.41;101473.63;4924129;28;20097;-81
2023/03/19 03:27:50;;;;;;;62.08;38.95;;;;;;;9.88;66.19;101471.50;4944324;28;20051;-79
2023/03/19 03:30:26;;;;;;;50.17;36.60;;;;;;;9.73;66.49;101456.66;4946815;28;20050;-77
2023/03/19 03:32:53;;;;;;;51.83;37.42;;;;;;;9.88;66.51;101484.75;4916936;28;20165;-79
2023/03/19 03:35:23;;;;;;;51.83;38.75;;;;;;;9.71;66.46;101451.50;4934541;28;20054;-78
2023/03/19 03:37:52;;;;;;;51.92;38.85;;;;;;;9.90;66.24;101480.16;4941383;28;20046;-78
2023/03/19 03:40:20;;;;;;;52.58;37.28;;;;;;;9.95;66.29;101483.34;4944677;28;20046;-79
2023/03/19 03:43:08;;;;;;;48.13;36.55;;;;;;;9.54;66.29;101415.59;4937774;28;20054;-78
2023/03/19 03:45:34;;;;;;;61.17;38.03;;;;;;;9.81;66.46;101472.91;4950310;28;20337;-79
2023/03/19 03:48:01;;;;;;;55.05;39.75;;;;;;;9.61;66.97;101455.75;4928241;28;20058;-79
2023/03/19 03:50:28;;;;;;;56.63;39.53;;;;;;;9.65;66.30;101451.91;4954480;28;20054;-79
2023/03/19 03:52:55;;;;;;;55.15;39.15;;;;;;;9.91;66.68;101483.69;4963612;28;20038;-80
2023/03/19 03:55:24;;;;;;;64.68;39.70;;;;;;;9.98;66.56;101492.91;4938992;28;20286;-78
2023/03/19 03:57:51;;;;;;;55.65;37.97;;;;;;;9.79;66.59;101456.25;4937241;28;20066;-78
2023/03/19 04:00:18;;;;;;;47.70;36.47;;;;;;;9.99;67.16;101484.81;4960383;28;20409;-79
2023/03/19 04:02:49;;;;;;;59.58;38.53;;;;;;;9.00;67.04;101312.56;4933295;28;20389;-78
2023/03/19 04:05:23;;;;;;;64.40;40.75;;;;;;;9.91;66.08;101459.81;4928229;28;20042;-79
2023/03/19 04:07:53;;;;;;;53.70;40.30;;;;;;;10.13;66.38;101501.56;4933487;28;20058;-81
2023/03/19 04:10:20;;;;;;;58.35;39.92;;;;;;;10.05;65.90;101484.38;4924280;28;20051;-81
2023/03/19 04:12:47;;;;;;;57.55;41.42;;;;;;;9.77;66.68;101450.19;4916756;28;20432;-80
2023/03/19 04:15:17;;;;;;;59.20;40.65;;;;;;;9.84;65.93;101457.59;4919328;28;20058;-81
2023/03/19 04:17:53;;;;;;;51.03;40.17;;;;;;;10.25;65.74;101516.56;4940764;28;20069;-80
2023/03/19 04:20:27;;;;;;;60.72;39.72;;;;;;;10.15;65.94;101512.91;4937214;28;20051;-80
2023/03/19 04:22:53;;;;;;;58.75;41.45;;;;;;;9.98;66.07;101483.13;4931586;28;20051;-81
2023/03/19 04:25:25;;;;;;;53.35;41.55;;;;;;;10.08;65.96;101493.09;4930021;28;20504;-81
2023/03/19 04:27:52;;;;;;;57.58;43.05;;;;;;;9.70;65.77;101430.38;4919473;28;20231;-80
2023/03/19 04:30:19;;;;;;;58.47;42.00;;;;;;;9.36;66.08;101385.91;4937061;28;20258;-81
2023/03/19 04:32:46;;;;;;;62.65;43.42;;;;;;;9.71;66.26;101432.06;4919188;28;20129;-80
2023/03/19 04:35:13;;;;;;;51.60;36.08;;;;;;;10.21;66.36;101507.13;4916674;28;20373;-81
2023/03/19 04:37:42;;;;;;;55.22;36.75;;;;;;;10.19;65.71;101450.66;4928620;28;20160;-81
2023/03/19 04:40:09;;;;;;;51.95;38.10;;;;;;;10.48;65.39;101481.25;4936113;28;20220;-80
2023/03/19 04:42:40;;;;;;;54.00;38.50;;;;;;;10.64;65.23;101501.34;4918695;28;20572;-81
2023/03/19 04:45:07;;;;;;;51.25;38.60;;;;;;;10.68;65.27;101516.09;4930181;28;20110;-81
2023/03/19 04:47:34;;;;;;;50.78;36.47;;;;;;;10.62;65.25;101514.72;4937825;28;20513;-81
2023/03/19 04:50:03;;;;;;;48.95;35.70;;;;;;;10.52;65.59;101491.66;4918516;28;20043;-80
2023/03/19 04:52:30;;;;;;;55.28;38.85;;;;;;;10.61;65.20;101517.50;4936075;28;20046;-81
2023/03/19 04:54:56;;;;;;;51.38;36.33;;;;;;;10.44;65.82;101490.41;4935071;28;20345;-81
2023/03/19 04:57:29;;;;;;;49.90;36.63;;;;;;;10.46;66.14;101509.72;4915329;28;20050;-77
2023/03/19 05:00:03;;;;;;;52.15;37.38;;;;;;;10.61;65.13;101497.13;4925148;28;20386;-80
2023/03/19 05:02:30;;;;;;;54.20;38.90;;;;;;;10.52;65.37;101492.47;4920747;28;20429;-79
2023/03/19 05:05:12;;;;;;;58.58;37.25;;;;;;;10.32;65.08;101477.19;4961580;28;20050;-80
2023/03/19 05:07:42;;;;;;;56.95;38.33;;;;;;;10.11;65.81;101458.34;4940222;28;20472;-77
2023/03/19 05:10:14;;;;;;;55.92;38.75;;;;;;;10.05;66.29;101459.66;4954142;28;20042;-81
2023/03/19 05:12:44;;;;;;;;;;;;;;;10.22;66.37;101499.06;4954764;28;20423;-78
2023/03/19 05:15:18;;;;;;;56.38;38.30;;;;;;;9.75;66.21;101417.63;4935964;28;20292;-80
2023/03/19 05:17:47;;;;;;;52.63;38.90;;;;;;;10.25;66.37;101487.38;4934146;28;20054;-81
2023/03/19 05:20:14;;;;;;;55.15;41.20;;;;;;;9.88;65.85;101426.41;4933918;28;20069;-79
2023/03/19 05:22:45;;;;;;;53.33;38.90;;;;;;;10.13;66.13;101478.50;4949923;28;20396;-79
2023/03/19 05:25:12;;;;;;;58.80;42.88;;;;;;;10.13;66.46;101493.59;4938715;28;20046;-79
2023/03/19 05:27:45;;;;;;;62.58;42.45;;;;;;;9.86;65.93;101451.34;4955726;28;20137;-77
2023/03/19 05:30:16;;;;;;;56.65;41.05;;;;;;;10.01;66.51;101476.75;4955899;28;20050;-80
2023/03/19 05:32:50;;;;;;;61.60;43.15;;;;;;;10.10;66.46;101501.75;4955165;28;20624;-79
2023/03/19 05:35:22;;;;;;;59.83;42.00;;;;;;;10.12;66.26;101506.00;4930620;28;20363;-80
2023/03/19 05:37:49;;;;;;;61.83;43.25;;;;;;;10.04;65.63;101487.13;4954972;28;20307;-79
2023/03/19 05:40:16;;;;;;;61.00;42.88;;;;;;;10.06;65.89;101483.41;4948878;28;20070;-78
2023/03/19 05:42:43;;;;;;;61.65;42.15;;;;;;;10.02;66.16;101487.25;4928856;28;20339;-79
2023/03/19 05:45:10;;;;;;;56.33;41.30;;;;;;;9.66;66.32;101432.41;4924744;28;20582;-81
2023/03/19 05:47:38;;;;;;;52.67;39.17;;;;;;;9.93;66.27;101479.97;4935894;28;20054;-80
2023/03/19 05:50:10;;;;;;;56.22;40.97;;;;;;;10.04;65.98;101493.28;4939918;28;20050;-80
2023/03/19 05:52:37;;;;;;;57.97;39.08;;;;;;;10.20;65.94;101530.19;4956715;28;20183;-80
2023/03/19 05:55:14;;;;;;;54.97;42.35;;;;;;;10.15;65.92;101516.41;4946829;28;20132;-79
2023/03/19 05:57:41;;;;;;;61.08;39.20;;;;;;;9.79;66.07;101453.59;4946778;28;20145;-79
2023/03/19 06:00:12;;;;;;;58.65;39.35;;;;;;;9.69;65.95;101447.25;4934853;28;20120;-80
2023/03/19 06:02:39;;;;;;;56.17;38.58;;;;;;;10.11;66.29;101535.31;4943696;28;20066;-80
2023/03/19 06:05:07;;;;;;;56.15;39.33;;;;;;;10.16;66.16;101526.03;4950571;28;20043;-79
2023/03/19 06:07:34;;;;;;;58.05;38.78;;;;;;;10.40;66.43;101539.38;4937817;28;20065;-80
2023/03/19 06:10:01;;;;;;;61.08;39.15;;;;;;;10.52;65.72;101544.75;4939308;28;20316;-80
2023/03/19 06:12:28;;;;;;;61.70;40.53;;;;;;;10.50;65.49;101533.38;4953677;28;20349;-79
2023/03/19 06:14:55;;;;;;;53.78;39.53;;;;;;;10.46;65.05;101532.75;4943093;28;20061;-81
2023/03/19 06:17:28;;;;;;;58.00;37.38;;;;;;;10.57;65.29;101553.22;4944040;28;20472;-78
2023/03/19 06:19:55;;;;;;;59.88;38.17;;;;;;;10.60;65.00;101552.97;4939918;28;20383;-81
2023/03/19 06:22:26;;;;;;;54.78;37.90;;;;;;;10.61;64.69;101557.34;4947435;28;20134;-80
2023/03/19 06:24:53;;;;;;;56.08;36.95;;;;;;;10.52;64.63;101540.28;4959960;28;20238;-80
2023/03/19 06:27:19;;;;;;;56.17;38.20;;;;;;;10.62;64.94;101567.84;4944692;28;20050;-79
2023/03/19 06:29:46;;;;;;;50.50;36.33;;;;;;;10.61;65.26;101573.28;4962778;28;20448;-80
2023/03/19 06:32:13;;;;;;;55.00;37.42;;;;;;;10.44;65.57;101546.16;4939191;28;20129;-80
2023/03/19 06:34:44;;;;;;;60.22;38.80;;;;;;;10.69;65.71;101578.84;4952093;28;20050;-81
2023/03/19 06:37:14;;;;;;;53.17;39.43;;;;;;;10.58;65.58;101555.75;4980684;28;20046;-78
2023/03/19 06:39:41;;;;;;;55.08;37.63;;;;;;;10.66;65.38;101573.78;4960793;28;20809;-80
2023/03/19 06:42:12;;;;;;;58.05;39.05;;;;;;;10.84;65.46;101593.66;4952899;28;20046;-79
2023/03/19 06:44:38;;;;;;;58.42;38.88;;;;;;;10.46;64.76;101517.69;4951313;28;20109;-79
2023/03/19 06:47:07;;;;;;;53.72;36.00;;;;;;;10.99;64.24;101585.50;4955100;28;20043;-78
2023/03/19 06:49:37;;;;;;;;;;;;;;;11.01;63.67;101589.72;4967697;28;20069;-79
2023/03/19 06:52:10;;;;;;;53.78;35.60;;;;;;;10.72;63.94;101557.38;4972241;28;19933;-79
2023/03/19 06:54:37;;;;;;;47.55;36.20;;;;;;;10.90;63.62;101582.59;4955500;28;20058;-78
2023/03/19 06:57:04;;;;;;;51.75;35.03;;;;;;;10.91;62.98;101584.25;4969454;28;20213;-78
2023/03/19 06:59:33;;;;;;;48.67;33.90;;;;;;;10.88;63.38;101583.66;4956931;28;20054;-79
2023/03/19 07:02:02;;;;;;;51.45;34.58;;;;;;;10.83;63.45;101569.88;4971472;28;20054;-79
2023/03/19 07:04:33;;;;;;;47.97;33.72;;;;;;;10.55;62.81;101517.97;4946196;28;20058;-79
2023/03/19 07:07:01;;;;;;;49.90;35.17;;;;;;;10.97;63.38;101590.06;4968065;28;20051;-77
2023/03/19 07:09:31;;;;;;;59.60;34.55;;;;;;;10.94;62.81;101577.03;4965929;28;20133;-81
2023/03/19 07:11:58;;;;;;;53.25;33.85;;;;;;;11.08;62.28;101606.06;4953775;28;20077;-81
2023/03/19 07:14:25;;;;;;;50.95;34.70;;;;;;;11.12;62.12;101610.19;4950847;28;20527;-79
2023/03/19 07:16:54;;;;;;;44.70;31.92;;;;;;;11.06;61.99;101594.72;4945290;28;20124;-80
2023/03/19 07:19:21;;;;;;;45.67;33.90;;;;;;;11.11;62.00;101605.84;4950746;28;20360;-81
2023/03/19 07:21:56;;;;;;;51.78;34.80;;;;;;;10.91;61.83;101568.31;4946889;28;20524;-80
2023/03/19 07:24:23;;;;;;;50.63;34.40;;;;;;;10.53;61.85;101509.25;4944525;28;20129;-81
2023/03/19 07:26:51;;;;;;;46.03;30.70;;;;;;;11.09;60.89;101583.84;4964781;28;20352;-79
2023/03/19 07:29:41;;;;;;;43.97;30.90;;;;;;;10.94;61.49;101561.09;4966133;28;20061;-78
2023/03/19 07:32:09;;;;;;;48.97;33.15;;;;;;;11.22;61.45;101603.22;4957281;28;20692;-78
2023/03/19 07:34:38;;;;;;;47.05;30.45;;;;;;;11.29;60.71;101620.41;4969594;28;20113;-80
2023/03/19 07:37:06;;;;;;;42.97;30.63;;;;;;;11.21;60.78;101601.50;4951084;28;20046;-80
2023/03/19 07:39:33;;;;;;;41.97;29.42;;;;;;;11.38;60.77;101623.31;4947666;28;20293;-79
2023/03/19 07:42:00;;;;;;;49.63;32.92;;;;;;;11.46;60.39;101628.91;4952035;28;20066;-81
2023/03/19 07:44:26;;;;;;;47.65;30.10;;;;;;;11.49;60.64;101631.34;4953945;28;20539;-80
2023/03/19 07:46:53;;;;;;;49.85;32.17;;;;;;;11.57;60.34;101644.03;4961559;28;20061;-78
2023/03/19 07:49:21;;;;;;;48.50;32.33;;;;;;;11.58;60.22;101654.56;4959319;28;20519;-77
2023/03/19 07:51:48;;;;;;;50.50;31.83;;;;;;;11.35;60.83;101616.44;4945905;28;20667;-78
2023/03/19 07:54:15;;;;;;;45.08;32.25;;;;;;;10.83;60.53;101514.94;4961712;28;20054;-80
2023/03/19 07:56:47;;;;;;;53.40;36.67;;;;;;;11.57;59.75;101633.41;4954919;28;20555;-80
2023/03/19 07:59:24;;;;;;;56.92;38.13;;;;;;;11.70;58.89;101644.78;4964235;28;20061;-80
2023/03/19 08:01:54;;;;;;;57.90;37.58;;;;;;;11.44;59.41;101617.56;4947340;28;20050;-80
2023/03/19 08:04:21;;;;;;;51.75;38.20;;;;;;;11.52;59.65;101634.59;4942250;28;20054;-79
2023/03/19 08:06:48;;;;;;;59.97;38.22;;;;;;;11.55;59.53;101652.13;4942838;28;20050;-76
2023/03/19 08:09:16;;;;;;;58.63;38.72;;;;;;;11.50;60.61;101654.28;4948457;28;20100;-78
2023/03/19 08:11:43;;;;;;;59.10;38.22;;;;;;;11.43;60.14;101634.44;4950185;28;20047;-79
2023/03/19 08:14:09;;;;;;;64.60;40.10;;;;;;;10.83;60.65;101544.16;4954843;28;20419;-79
2023/03/19 08:16:36;;;;;;;57.20;40.97;;;;;;;11.54;60.47;101661.91;4955941;28;20055;-79
2023/03/19 08:19:07;;;;;;;61.88;40.33;;;;;;;11.61;60.46;101646.34;4962142;28;20039;-80
2023/03/19 08:21:33;;;;;;;57.30;39.92;;;;;;;11.72;60.38;101669.44;4951687;28;20137;-80
2023/03/19 08:24:00;;;;;;;61.05;40.45;;;;;;;11.64;60.09;101640.78;4948767;28;20055;-78
2023/03/19 08:26:31;;;;;;;63.08;42.55;;;;;;;11.84;60.07;101657.03;4948787;28;20138;-79
2023/03/19 08:28:59;;;;;;;51.63;35.90;;;;;;;11.65;59.95;101618.56;4950187;28;20066;-78
2023/03/19 08:31:25;;;;;;;66.32;43.47;;;;;;;12.06;59.01;101669.53;4940043;28;20038;-79
2023/03/19 08:33:52;;;;;;;59.80;40.70;;;;;;;11.84;58.52;101622.44;4956311;28;20054;-78
2023/03/19 08:36:19;;;;;;;68.97;45.88;;;;;;;12.00;57.87;101646.06;4941105;28;20205;-79
2023/03/19 08:38:46;;;;;;;71.32;46.30;;;;;;;11.97;57.73;101641.84;4952723;28;20069;-78
2023/03/19 08:41:13;;;;;;;68.90;44.35;;;;;;;12.19;57.69;101678.25;4960483;28;20535;-78
2023/03/19 08:43:42;;;;;;;65.55;47.10;;;;;;;11.71;58.21;101590.63;4958635;28;20070;-81
2023/03/19 08:46:18;;;;;;;71.00;46.97;;;;;;;11.74;57.87;101577.09;4954835;28;20082;-79
2023/03/19 08:48:45;;;;;;;66.55;45.38;;;;;;;12.45;56.62;101668.22;4935576;28;20690;-80
2023/03/19 08:51:13;;;;;;;73.28;47.53;;;;;;;11.77;56.97;101569.72;4963274;28;20047;-79
2023/03/19 08:53:45;;;;;;;62.38;45.30;;;;;;;12.31;57.05;101634.69;4944431;28;20517;-80
2023/03/19 08:56:19;;;;;;;62.53;45.70;;;;;;;12.67;56.36;101671.78;4923505;28;20042;-78
2023/03/19 08:58:46;;;;;;;69.93;45.50;;;;;;;11.82;55.77;101526.78;4931370;28;20065;-77
2023/03/19 09:01:14;;;;;;;73.10;43.97;;;;;;;12.79;56.10;101673.47;4919093;28;20070;-78
2023/03/19 09:03:45;;;;;;;64.10;45.28;;;;;;;12.86;55.67;101680.00;4935256;28;20618;-78
2023/03/19 09:06:14;;;;;;;62.53;45.30;;;;;;;12.78;55.10;101659.31;4906021;28;20142;-81
2023/03/19 09:08:45;;;;;;;65.40;44.85;;;;;;;12.84;56.12;101673.97;4895067;29;20055;-82
2023/03/19 09:11:15;;;;;;;59.33;38.30;;;;;;;12.71;56.27;101652.78;4924832;28;20152;-80
2023/03/19 09:13:55;;;;;;;66.63;43.25;;;;;;;12.94;56.10;101661.56;4935531;28;20115;-77
2023/03/19 09:16:46;;;;;;;67.95;43.75;;;;;;;12.86;55.56;101634.69;4934783;28;20059;-82
2023/03/19 09:19:12;;;;;;;71.78;44.78;;;;;;;13.03;54.75;101651.94;4915766;28;20505;-80
2023/03/19 09:21:41;;;;;;;63.50;42.30;;;;;;;13.18;54.83;101671.16;4927413;28;20055;-82
2023/03/19 09:24:09;;;;;;;71.22;43.17;;;;;;;13.21;54.80;101686.94;4941040;28;20097;-81
2023/03/19 09:26:42;;;;;;;65.20;43.08;;;;;;;13.02;54.53;101645.78;4911899;28;20287;-77
2023/03/19 09:29:18;;;;;;;64.60;39.63;;;;;;;13.05;55.22;101650.84;4908050;29;20129;-81
2023/03/19 09:31:50;;;;;;;60.97;38.88;;;;;;;13.26;55.26;101679.38;4920341;28;20058;-80
2023/03/19 09:34:20;;;;;;;65.43;40.55;;;;;;;13.38;54.68;101678.41;4907607;28;20114;-80
2023/03/19 09:36:47;;;;;;;60.22;39.05;;;;;;;13.21;54.67;101649.59;4902551;28;20058;-79
2023/03/19 09:39:18;;;;;;;58.35;40.80;;;;;;;13.53;54.48;101680.75;4932065;28;20059;-78
2023/03/19 09:41:59;;;;;;;62.78;39.55;;;;;;;13.57;53.98;101683.03;4910997;29;20051;-79
2023/03/19 09:44:40;;;;;;;69.03;40.78;;;;;;;13.56;54.66;101683.16;4913918;29;20091;-81
2023/03/19 09:47:31;;;;;;;52.88;34.92;;;;;;;13.60;54.42;101672.09;4920788;29;20348;-80
2023/03/19 09:50:16;;;;;;;64.15;41.08;;;;;;;13.69;53.76;101670.47;4910642;29;20516;-80
2023/03/19 09:53:05;;;;;;;59.75;42.25;;;;;;;13.37;53.61;101596.66;4897417;29;20224;-79
2023/03/19 09:55:50;;;;;;;52.83;34.05;;;;;;;13.72;54.06;101632.84;4897230;29;20538;-78
2023/03/19 09:58:26;;;;;;;50.15;35.42;;;;;;;13.92;53.91;101664.97;4900259;29;20454;-80
2023/03/19 10:00:54;;;;;;;58.20;37.78;;;;;;;13.37;54.14;101564.66;4914627;29;20052;-82
2023/03/19 10:03:52;;;;;;;59.55;35.30;;;;;;;14.00;53.90;101663.31;4898637;29;20067;-80
2023/03/19 10:06:36;;;;;;;63.95;39.47;;;;;;;14.11;53.11;101662.41;4896518;29;20040;-80
2023/03/19 10:09:27;;;;;;;59.35;34.95;;;;;;;14.13;52.88;101673.81;4890805;29;20062;-81
2023/03/19 10:12:16;;;;;;;55.00;35.47;;;;;;;12.86;53.31;101455.31;4899669;29;20126;-78
2023/03/19 10:15:18;;;;;;;66.18;40.33;;;;;;;14.23;53.44;101669.34;4918705;29;20361;-81
2023/03/19 10:18:06;;;;;;;57.25;34.72;;;;;;;14.36;53.61;101657.59;4896962;28;20381;-80
2023/03/19 10:20:49;;;;;;;60.70;38.38;;;;;;;14.28;53.79;101648.41;4930910;28;20071;-79
2023/03/19 10:23:45;;;;;;;56.15;34.50;;;;;;;14.58;53.59;101667.25;4915206;29;20054;-80
2023/03/19 10:26:19;;;;;;;57.20;37.17;;;;;;;14.58;53.68;101659.22;4918537;29;20797;-80
2023/03/19 10:29:12;;;;;;;63.78;39.20;;;;;;;14.59;53.14;101652.88;4943831;28;20040;-81
2023/03/19 10:32:03;;;;;;;58.50;36.95;;;;;;;14.57;53.18;101626.31;4912081;29;20066;-78
2023/03/19 10:34:44;;;;;;;49.28;33.55;;;;;;;14.75;52.66;101648.69;4924200;29;20047;-81
2023/03/19 10:37:26;;;;;;;46.38;29.33;;;;;;;14.80;52.54;101613.53;4929827;28;20055;-79
2023/03/19 10:39:59;;;;;;;58.17;37.30;;;;;;;14.25;52.23;101554.38;4926260;29;20157;-81
2023/03/19 10:42:45;;;;;;;47.78;30.13;;;;;;;15.07;51.87;101636.94;4933979;29;20413;-81
2023/03/19 10:45:30;;;;;;;55.70;38.50;;;;;;;15.21;51.96;101632.13;4920015;29;20540;-80
2023/03/19 10:48:00;;;;;;;57.53;37.03;;;;;;;15.04;51.55;101637.19;4914873;29;20121;-81
2023/03/19 10:50:46;;;;;;;52.33;33.00;;;;;;;14.63;51.28;101572.31;4934595;28;20121;-80
2023/03/19 10:53:13;;;;;;;51.45;34.05;;;;;;;15.00;51.47;101630.47;4959913;28;20062;-81
2023/03/19 10:56:01;;;;;;;52.58;32.70;;;;;;;14.89;52.09;101615.38;4955226;28;20433;-80
2023/03/19 10:58:32;;;;;;;49.10;34.25;;;;;;;15.13;52.07;101641.72;4951692;28;20053;-78
2023/03/19 11:01:09;;;;;;;53.40;32.92;;;;;;;14.73;51.93;101548.25;4933839;29;20062;-79
2023/03/19 11:03:38;;;;;;;46.97;34.17;;;;;;;15.28;52.13;101643.97;4936228;29;20494;-78
2023/03/19 11:06:22;;;;;;;43.45;29.23;;;;;;;15.38;51.60;101628.75;4928815;28;20169;-79
2023/03/19 11:09:06;;;;;;;35.55;23.85;;;;;;;15.69;50.70;101609.81;4954043;28;20069;-80
2023/03/19 11:11:43;;;;;;;48.80;32.42;;;;;;;15.40;51.97;101621.41;4940434;28;20051;-78
2023/03/19 11:14:12;;;;;;;39.50;25.77;;;;;;;15.28;51.98;101579.75;4933575;29;20074;-79
2023/03/19 11:17:01;;;;;;;40.92;26.10;;;;;;;15.71;51.30;101623.94;4935781;29;20696;-79
2023/03/19 11:19:38;;;;;;;36.13;23.85;;;;;;;15.69;51.05;101605.28;4937276;29;20121;-79
2023/03/19 11:22:19;;;;;;;33.90;24.88;;;;;;;15.56;51.60;101620.84;4937371;29;20607;-79
2023/03/19 11:24:59;;;;;;;;;;;;;;;15.62;51.48;101635.47;4931833;29;20051;-78
2023/03/19 11:27:33;;;;;;;43.92;29.33;;;;;;;15.51;51.83;101628.44;4927843;29;20018;-79
2023/03/19 11:30:02;;;;;;;47.75;30.08;;;;;;;15.29;51.67;101593.00;4935506;28;20055;-79
2023/03/19 11:32:41;;;;;;;45.55;26.75;;;;;;;15.58;51.73;101630.41;4953350;28;20063;-79
2023/03/19 11:35:50;;;;;;;46.05;24.10;;;;;;;15.46;52.10;101618.19;4934086;29;20062;-79
2023/03/19 11:38:40;;;;;;;37.25;25.77;;;;;;;15.36;52.28;101604.81;4945603;28;20162;-82
2023/03/19 11:41:28;;;;;;;46.80;30.58;;;;;;;15.37;52.83;101605.66;4939610;29;20122;-80